sensor_id;sensor_type;location;lat;lon;timestamp;pressure;altitude;pressure_sealevel;temperature;humidity
10992;BME280;5549;47.028;15.514;2024-02-04T00:00:05;97090.66;;;9.60;57.77
10992;BME280;5549;47.028;15.514;2024-02-04T00:02:35;97091.88;;;9.68;57.35
10992;BME280;5549;47.028;15.514;2024-02-04T00:05:06;97081.22;;;9.58;58.52
10992;BME280;5549;47.028;15.514;2024-02-04T00:07:33;97080.56;;;9.67;57.18
10992;BME280;5549;47.028;15.514;2024-02-04T00:10:01;97062.91;;;9.69;57.50
10992;BME280;5549;47.028;15.514;2024-02-04T00:12:30;97056.84;;;9.69;57.44
10992;BME280;5549;47.028;15.514;2024-02-04T00:15:01;97061.56;;;9.63;57.60
10992;BME280;5549;47.028;15.514;2024-02-04T00:17:30;97061.69;;;9.62;57.24
10992;BME280;5549;47.028;15.514;2024-02-04T00:20:05;97053.09;;;9.60;57.67
10992;BME280;5549;47.028;15.514;2024-02-04T00:22:33;97049.25;;;9.53;58.33
10992;BME280;5549;47.028;15.514;2024-02-04T00:25:01;97063.00;;;9.44;58.40
10992;BME280;5549;47.028;15.514;2024-02-04T00:27:31;97065.84;;;9.41;58.64
10992;BME280;5549;47.028;15.514;2024-02-04T00:29:59;97057.38;;;9.37;58.59
10992;BME280;5549;47.028;15.514;2024-02-04T00:32:28;97051.06;;;9.40;57.91
10992;BME280;5549;47.028;15.514;2024-02-04T00:34:56;97060.81;;;9.38;58.35
10992;BME280;5549;47.028;15.514;2024-02-04T00:37:32;97058.81;;;9.41;57.98
10992;BME280;5549;47.028;15.514;2024-02-04T00:40:00;97065.31;;;9.48;57.63
10992;BME280;5549;47.028;15.514;2024-02-04T00:42:30;97067.81;;;9.50;57.16
10992;BME280;5549;47.028;15.514;2024-02-04T00:44:57;97063.75;;;9.46;58.06
10992;BME280;5549;47.028;15.514;2024-02-04T00:47:25;97066.16;;;9.49;57.34
10992;BME280;5549;47.028;15.514;2024-02-04T00:49:55;97067.53;;;9.42;58.22
10992;BME280;5549;47.028;15.514;2024-02-04T00:52:22;97062.19;;;9.43;58.02
10992;BME280;5549;47.028;15.514;2024-02-04T00:54:54;97061.56;;;9.40;58.31
10992;BME280;5549;47.028;15.514;2024-02-04T00:57:23;97045.22;;;9.36;58.10
10992;BME280;5549;47.028;15.514;2024-02-04T00:59:51;97042.91;;;9.31;58.66
10992;BME280;5549;47.028;15.514;2024-02-04T01:02:21;97033.38;;;9.30;58.91
10992;BME280;5549;47.028;15.514;2024-02-04T01:04:50;97039.78;;;9.26;58.97
10992;BME280;5549;47.028;15.514;2024-02-04T01:07:18;97036.44;;;9.24;59.00
10992;BME280;5549;47.028;15.514;2024-02-04T01:09:48;97039.50;;;9.18;59.46
10992;BME280;5549;47.028;15.514;2024-02-04T01:12:19;97050.31;;;9.01;60.04
10992;BME280;5549;47.028;15.514;2024-02-04T01:14:49;97043.38;;;9.13;59.58
10992;BME280;5549;47.028;15.514;2024-02-04T01:17:16;97046.00;;;9.13;59.80
10992;BME280;5549;47.028;15.514;2024-02-04T01:19:44;97047.56;;;9.15;59.54
10992;BME280;5549;47.028;15.514;2024-02-04T01:22:12;97050.41;;;9.12;60.05
10992;BME280;5549;47.028;15.514;2024-02-04T01:24:42;97057.09;;;9.16;59.92
10992;BME280;5549;47.028;15.514;2024-02-04T01:27:10;97056.88;;;9.19;59.97
10992;BME280;5549;47.028;15.514;2024-02-04T01:29:39;97051.31;;;9.24;59.15
10992;BME280;5549;47.028;15.514;2024-02-04T01:32:09;97055.28;;;9.29;59.17
10992;BME280;5549;47.028;15.514;2024-02-04T01:34:38;97056.63;;;9.35;58.03
10992;BME280;5549;47.028;15.514;2024-02-04T01:37:08;97049.84;;;9.32;58.33
10992;BME280;5549;47.028;15.514;2024-02-04T01:39:36;97046.16;;;9.35;58.19
10992;BME280;5549;47.028;15.514;2024-02-04T01:42:04;97060.81;;;9.38;57.71
10992;BME280;5549;47.028;15.514;2024-02-04T01:44:33;97054.41;;;9.42;57.81
10992;BME280;5549;47.028;15.514;2024-02-04T01:47:02;97061.94;;;9.46;57.89
10992;BME280;5549;47.028;15.514;2024-02-04T01:49:32;97073.94;;;9.38;58.28
10992;BME280;5549;47.028;15.514;2024-02-04T01:52:00;97065.88;;;9.28;58.47
10992;BME280;5549;47.028;15.514;2024-02-04T01:54:32;97056.22;;;8.92;59.71
10992;BME280;5549;47.028;15.514;2024-02-04T01:57:02;97051.78;;;8.54;61.57
10992;BME280;5549;47.028;15.514;2024-02-04T01:59:32;97049.22;;;8.67;60.99
10992;BME280;5549;47.028;15.514;2024-02-04T02:02:01;97045.13;;;8.76;61.10
10992;BME280;5549;47.028;15.514;2024-02-04T02:04:32;97046.88;;;8.88;60.73
10992;BME280;5549;47.028;15.514;2024-02-04T02:07:04;97036.50;;;8.99;60.01
10992;BME280;5549;47.028;15.514;2024-02-04T02:09:40;97045.31;;;8.98;59.81
10992;BME280;5549;47.028;15.514;2024-02-04T02:12:13;97039.19;;;9.10;59.62
10992;BME280;5549;47.028;15.514;2024-02-04T02:14:59;97015.84;;;9.07;59.77
10992;BME280;5549;47.028;15.514;2024-02-04T02:17:36;97009.06;;;8.92;60.02
10992;BME280;5549;47.028;15.514;2024-02-04T02:20:14;97031.69;;;8.93;59.64
10992;BME280;5549;47.028;15.514;2024-02-04T02:22:49;97032.13;;;8.87;59.67
10992;BME280;5549;47.028;15.514;2024-02-04T02:25:20;97039.25;;;8.85;60.12
10992;BME280;5549;47.028;15.514;2024-02-04T02:27:49;97019.97;;;8.86;59.70
10992;BME280;5549;47.028;15.514;2024-02-04T02:30:17;97018.06;;;8.88;59.55
10992;BME280;5549;47.028;15.514;2024-02-04T02:32:47;97014.72;;;8.86;59.84
10992;BME280;5549;47.028;15.514;2024-02-04T02:35:16;97022.47;;;8.87;59.61
10992;BME280;5549;47.028;15.514;2024-02-04T02:37:54;97015.25;;;8.91;59.62
10992;BME280;5549;47.028;15.514;2024-02-04T02:40:29;97024.66;;;8.93;59.31
10992;BME280;5549;47.028;15.514;2024-02-04T02:42:59;97028.53;;;9.00;59.07
10992;BME280;5549;47.028;15.514;2024-02-04T02:45:29;97033.00;;;9.11;59.30
10992;BME280;5549;47.028;15.514;2024-02-04T02:47:58;97023.91;;;9.04;59.74
10992;BME280;5549;47.028;15.514;2024-02-04T02:50:26;97015.66;;;8.97;59.38
10992;BME280;5549;47.028;15.514;2024-02-04T02:52:54;97022.38;;;8.89;59.15
10992;BME280;5549;47.028;15.514;2024-02-04T02:55:27;97023.75;;;8.82;58.94
10992;BME280;5549;47.028;15.514;2024-02-04T02:57:54;97023.97;;;8.79;59.06
10992;BME280;5549;47.028;15.514;2024-02-04T03:00:22;97032.13;;;8.74;59.46
10992;BME280;5549;47.028;15.514;2024-02-04T03:02:52;97015.34;;;8.51;60.43
10992;BME280;5549;47.028;15.514;2024-02-04T03:05:22;97030.75;;;8.43;60.77
10992;BME280;5549;47.028;15.514;2024-02-04T03:07:50;97027.81;;;8.48;59.79
10992;BME280;5549;47.028;15.514;2024-02-04T03:10:18;97028.81;;;8.20;62.11
10992;BME280;5549;47.028;15.514;2024-02-04T03:12:47;97020.75;;;8.23;62.03
10992;BME280;5549;47.028;15.514;2024-02-04T03:15:15;97034.94;;;8.33;61.28
10992;BME280;5549;47.028;15.514;2024-02-04T03:17:43;97034.16;;;8.31;61.61
10992;BME280;5549;47.028;15.514;2024-02-04T03:20:14;97038.81;;;8.40;61.08
10992;BME280;5549;47.028;15.514;2024-02-04T03:22:42;97026.44;;;8.42;61.12
10992;BME280;5549;47.028;15.514;2024-02-04T03:25:11;97023.16;;;8.26;62.66
10992;BME280;5549;47.028;15.514;2024-02-04T03:27:51;97022.19;;;8.01;63.45
10992;BME280;5549;47.028;15.514;2024-02-04T03:30:21;97015.09;;;8.16;62.66
10992;BME280;5549;47.028;15.514;2024-02-04T03:32:49;97009.56;;;8.21;62.30
10992;BME280;5549;47.028;15.514;2024-02-04T03:35:17;97002.97;;;8.28;61.77
10992;BME280;5549;47.028;15.514;2024-02-04T03:37:44;96996.59;;;8.32;62.06
10992;BME280;5549;47.028;15.514;2024-02-04T03:40:14;97001.91;;;8.30;62.04
10992;BME280;5549;47.028;15.514;2024-02-04T03:42:44;96991.66;;;8.27;62.28
10992;BME280;5549;47.028;15.514;2024-02-04T03:45:15;96998.69;;;8.27;62.94
10992;BME280;5549;47.028;15.514;2024-02-04T03:47:43;96993.59;;;8.38;62.37
10992;BME280;5549;47.028;15.514;2024-02-04T03:50:13;96991.03;;;8.24;62.36
10992;BME280;5549;47.028;15.514;2024-02-04T03:52:43;96988.50;;;8.10;63.09
10992;BME280;5549;47.028;15.514;2024-02-04T03:55:13;96988.31;;;8.25;62.22
10992;BME280;5549;47.028;15.514;2024-02-04T03:57:41;96990.81;;;8.27;61.71
10992;BME280;5549;47.028;15.514;2024-02-04T04:00:12;96987.06;;;8.31;61.57
10992;BME280;5549;47.028;15.514;2024-02-04T04:02:44;96993.94;;;8.07;63.02
10992;BME280;5549;47.028;15.514;2024-02-04T04:05:15;96996.06;;;8.14;63.41
10992;BME280;5549;47.028;15.514;2024-02-04T04:07:43;97001.81;;;8.19;62.76
10992;BME280;5549;47.028;15.514;2024-02-04T04:10:13;97009.16;;;8.27;62.59
10992;BME280;5549;47.028;15.514;2024-02-04T04:12:41;96994.59;;;8.23;62.95
10992;BME280;5549;47.028;15.514;2024-02-04T04:15:10;96997.31;;;8.09;64.35
10992;BME280;5549;47.028;15.514;2024-02-04T04:17:38;97007.78;;;8.21;63.20
10992;BME280;5549;47.028;15.514;2024-02-04T04:20:08;97012.50;;;8.29;62.60
10992;BME280;5549;47.028;15.514;2024-02-04T04:22:38;97010.41;;;8.21;63.09
10992;BME280;5549;47.028;15.514;2024-02-04T04:25:09;97011.22;;;8.22;63.00
10992;BME280;5549;47.028;15.514;2024-02-04T04:27:39;97017.63;;;8.18;63.00
10992;BME280;5549;47.028;15.514;2024-02-04T04:30:10;97025.78;;;8.26;63.00
10992;BME280;5549;47.028;15.514;2024-02-04T04:32:38;97025.56;;;8.29;62.47
10992;BME280;5549;47.028;15.514;2024-02-04T04:35:10;97024.31;;;8.22;63.23
10992;BME280;5549;47.028;15.514;2024-02-04T04:37:40;97022.25;;;8.40;62.61
10992;BME280;5549;47.028;15.514;2024-02-04T04:40:11;97019.75;;;8.51;62.52
10992;BME280;5549;47.028;15.514;2024-02-04T04:42:38;97018.47;;;8.31;62.32
10992;BME280;5549;47.028;15.514;2024-02-04T04:45:09;97027.25;;;8.30;62.55
10992;BME280;5549;47.028;15.514;2024-02-04T04:47:37;97024.31;;;8.22;62.79
10992;BME280;5549;47.028;15.514;2024-02-04T04:50:06;97011.53;;;8.17;63.31
10992;BME280;5549;47.028;15.514;2024-02-04T04:52:37;97006.53;;;8.27;62.43
10992;BME280;5549;47.028;15.514;2024-02-04T04:55:08;97005.06;;;8.23;62.69
10992;BME280;5549;47.028;15.514;2024-02-04T04:57:36;97016.78;;;8.30;62.41
10992;BME280;5549;47.028;15.514;2024-02-04T05:00:08;97015.09;;;8.29;62.47
10992;BME280;5549;47.028;15.514;2024-02-04T05:02:37;97014.78;;;8.21;62.41
10992;BME280;5549;47.028;15.514;2024-02-04T05:05:05;97017.81;;;8.15;62.94
10992;BME280;5549;47.028;15.514;2024-02-04T05:07:33;97017.16;;;7.98;63.61
10992;BME280;5549;47.028;15.514;2024-02-04T05:10:02;97014.75;;;7.95;63.77
10992;BME280;5549;47.028;15.514;2024-02-04T05:12:30;97025.34;;;8.07;63.05
10992;BME280;5549;47.028;15.514;2024-02-04T05:14:57;97034.44;;;8.14;62.46
10992;BME280;5549;47.028;15.514;2024-02-04T05:17:27;97034.03;;;8.07;62.96
10992;BME280;5549;47.028;15.514;2024-02-04T05:19:55;97048.38;;;8.14;62.64
10992;BME280;5549;47.028;15.514;2024-02-04T05:22:23;97053.59;;;8.14;62.76
10992;BME280;5549;47.028;15.514;2024-02-04T05:24:50;97044.84;;;8.28;62.06
10992;BME280;5549;47.028;15.514;2024-02-04T05:27:21;97039.22;;;8.34;61.77
10992;BME280;5549;47.028;15.514;2024-02-04T05:29:49;97032.38;;;8.19;62.86
10992;BME280;5549;47.028;15.514;2024-02-04T05:32:16;97027.53;;;8.13;63.37
10992;BME280;5549;47.028;15.514;2024-02-04T05:34:46;97042.09;;;8.17;63.00
10992;BME280;5549;47.028;15.514;2024-02-04T05:37:16;97030.38;;;8.22;62.31
10992;BME280;5549;47.028;15.514;2024-02-04T05:39:44;97018.13;;;8.23;63.42
10992;BME280;5549;47.028;15.514;2024-02-04T05:42:13;97021.91;;;8.19;63.13
10992;BME280;5549;47.028;15.514;2024-02-04T05:44:44;97031.44;;;8.20;63.28
10992;BME280;5549;47.028;15.514;2024-02-04T05:47:12;97036.50;;;7.96;62.73
10992;BME280;5549;47.028;15.514;2024-02-04T05:49:40;97045.16;;;7.84;63.06
10992;BME280;5549;47.028;15.514;2024-02-04T05:52:08;97048.91;;;7.80;63.81
10992;BME280;5549;47.028;15.514;2024-02-04T05:54:38;97038.34;;;7.81;64.02
10992;BME280;5549;47.028;15.514;2024-02-04T05:57:06;97049.69;;;7.94;63.75
10992;BME280;5549;47.028;15.514;2024-02-04T05:59:34;97044.78;;;8.02;63.68
10992;BME280;5549;47.028;15.514;2024-02-04T06:02:03;97028.25;;;8.02;63.96
10992;BME280;5549;47.028;15.514;2024-02-04T06:04:33;97021.78;;;8.08;63.66
10992;BME280;5549;47.028;15.514;2024-02-04T06:07:02;97033.63;;;8.26;63.30
10992;BME280;5549;47.028;15.514;2024-02-04T06:09:33;97025.94;;;8.37;62.85
10992;BME280;5549;47.028;15.514;2024-02-04T06:12:01;97034.50;;;8.39;62.19
10992;BME280;5549;47.028;15.514;2024-02-04T06:14:34;97039.13;;;8.35;62.86
10992;BME280;5549;47.028;15.514;2024-02-04T06:17:07;97026.88;;;8.36;62.40
10992;BME280;5549;47.028;15.514;2024-02-04T06:19:38;97040.91;;;8.35;62.21
10992;BME280;5549;47.028;15.514;2024-02-04T06:22:08;97066.16;;;8.09;62.16
10992;BME280;5549;47.028;15.514;2024-02-04T06:25:00;97080.56;;;8.02;61.33
10992;BME280;5549;47.028;15.514;2024-02-04T06:27:31;97069.16;;;7.63;61.77
10992;BME280;5549;47.028;15.514;2024-02-04T06:30:00;97079.94;;;7.45;64.26
10992;BME280;5549;47.028;15.514;2024-02-04T06:32:29;97079.97;;;7.16;64.12
10992;BME280;5549;47.028;15.514;2024-02-04T06:35:00;97088.81;;;7.28;64.22
10992;BME280;5549;47.028;15.514;2024-02-04T06:37:28;97085.84;;;7.20;64.51
10992;BME280;5549;47.028;15.514;2024-02-04T06:40:01;97083.00;;;6.96;66.68
10992;BME280;5549;47.028;15.514;2024-02-04T06:42:29;97085.19;;;6.59;67.14
10992;BME280;5549;47.028;15.514;2024-02-04T06:44:57;97073.81;;;6.60;67.75
10992;BME280;5549;47.028;15.514;2024-02-04T06:47:25;97075.50;;;6.75;67.28
10992;BME280;5549;47.028;15.514;2024-02-04T06:49:58;97080.84;;;7.02;65.94
10992;BME280;5549;47.028;15.514;2024-02-04T06:52:28;97090.63;;;7.13;66.79
10992;BME280;5549;47.028;15.514;2024-02-04T06:55:03;97100.22;;;7.27;67.20
10992;BME280;5549;47.028;15.514;2024-02-04T06:57:31;97110.63;;;7.82;66.07
10992;BME280;5549;47.028;15.514;2024-02-04T06:59:58;97095.53;;;8.40;64.51
10992;BME280;5549;47.028;15.514;2024-02-04T07:02:26;97104.41;;;8.77;61.76
10992;BME280;5549;47.028;15.514;2024-02-04T07:04:54;97097.28;;;8.91;60.88
10992;BME280;5549;47.028;15.514;2024-02-04T07:07:23;97102.72;;;9.01;59.36
10992;BME280;5549;47.028;15.514;2024-02-04T07:09:52;97100.09;;;9.01;61.70
10992;BME280;5549;47.028;15.514;2024-02-04T07:12:20;97101.59;;;9.42;65.70
10992;BME280;5549;47.028;15.514;2024-02-04T07:14:50;97102.69;;;9.63;64.32
10992;BME280;5549;47.028;15.514;2024-02-04T07:17:17;97110.19;;;9.80;62.81
10992;BME280;5549;47.028;15.514;2024-02-04T07:19:47;97113.66;;;10.05;61.93
10992;BME280;5549;47.028;15.514;2024-02-04T07:22:15;97100.88;;;10.24;60.66
10992;BME280;5549;47.028;15.514;2024-02-04T07:24:44;97109.09;;;9.59;58.13
10992;BME280;5549;47.028;15.514;2024-02-04T07:27:14;97110.50;;;9.52;60.00
10992;BME280;5549;47.028;15.514;2024-02-04T07:29:42;97117.84;;;9.83;62.18
10992;BME280;5549;47.028;15.514;2024-02-04T07:32:11;97109.00;;;10.21;61.94
10992;BME280;5549;47.028;15.514;2024-02-04T07:34:41;97120.94;;;9.15;58.84
10992;BME280;5549;47.028;15.514;2024-02-04T07:37:11;97102.91;;;9.23;60.17
10992;BME280;5549;47.028;15.514;2024-02-04T07:39:38;97112.31;;;9.39;59.16
10992;BME280;5549;47.028;15.514;2024-02-04T07:42:10;97108.31;;;9.46;60.03
10992;BME280;5549;47.028;15.514;2024-02-04T07:44:40;97099.38;;;9.85;60.04
10992;BME280;5549;47.028;15.514;2024-02-04T07:47:10;97109.28;;;10.16;60.25
10992;BME280;5549;47.028;15.514;2024-02-04T07:49:39;97104.84;;;10.06;57.68
10992;BME280;5549;47.028;15.514;2024-02-04T07:52:07;97098.84;;;10.04;56.53
10992;BME280;5549;47.028;15.514;2024-02-04T07:54:34;97108.56;;;9.17;59.02
10992;BME280;5549;47.028;15.514;2024-02-04T07:57:02;97106.47;;;9.10;58.04
10992;BME280;5549;47.028;15.514;2024-02-04T07:59:34;97116.94;;;9.35;57.82
10992;BME280;5549;47.028;15.514;2024-02-04T08:02:01;97120.16;;;9.51;57.49
10992;BME280;5549;47.028;15.514;2024-02-04T08:04:31;97114.34;;;9.59;57.14
10992;BME280;5549;47.028;15.514;2024-02-04T08:06:58;97118.53;;;9.61;56.97
10992;BME280;5549;47.028;15.514;2024-02-04T08:09:26;97110.13;;;9.69;56.78
10992;BME280;5549;47.028;15.514;2024-02-04T08:11:54;97099.75;;;9.91;56.06
10992;BME280;5549;47.028;15.514;2024-02-04T08:14:21;97095.75;;;9.98;55.69
10992;BME280;5549;47.028;15.514;2024-02-04T08:16:52;97087.06;;;10.09;55.10
10992;BME280;5549;47.028;15.514;2024-02-04T08:19:20;97085.78;;;10.15;54.92
10992;BME280;5549;47.028;15.514;2024-02-04T08:21:50;97092.72;;;10.40;54.01
10992;BME280;5549;47.028;15.514;2024-02-04T08:24:17;97091.47;;;10.56;53.79
10992;BME280;5549;47.028;15.514;2024-02-04T08:26:48;97089.34;;;10.73;53.01
10992;BME280;5549;47.028;15.514;2024-02-04T08:29:17;97087.00;;;10.92;52.75
10992;BME280;5549;47.028;15.514;2024-02-04T08:31:45;97097.03;;;10.98;53.30
10992;BME280;5549;47.028;15.514;2024-02-04T08:34:14;97087.94;;;11.02;52.25
10992;BME280;5549;47.028;15.514;2024-02-04T08:36:43;97095.34;;;11.08;51.40
10992;BME280;5549;47.028;15.514;2024-02-04T08:39:11;97095.13;;;11.22;52.02
10992;BME280;5549;47.028;15.514;2024-02-04T08:41:41;97093.91;;;11.38;51.61
10992;BME280;5549;47.028;15.514;2024-02-04T08:44:11;97097.75;;;11.45;50.94
10992;BME280;5549;47.028;15.514;2024-02-04T08:46:38;97094.13;;;11.57;51.09
10992;BME280;5549;47.028;15.514;2024-02-04T08:49:14;97077.53;;;11.56;49.75
10992;BME280;5549;47.028;15.514;2024-02-04T08:51:44;97091.50;;;11.57;50.06
10992;BME280;5549;47.028;15.514;2024-02-04T08:54:36;97074.78;;;11.47;52.13
10992;BME280;5549;47.028;15.514;2024-02-04T08:57:04;97088.31;;;11.20;52.17
10992;BME280;5549;47.028;15.514;2024-02-04T08:59:34;97098.22;;;11.16;52.61
10992;BME280;5549;47.028;15.514;2024-02-04T09:02:02;97083.66;;;11.12;52.41
10992;BME280;5549;47.028;15.514;2024-02-04T09:04:31;97115.91;;;11.25;52.82
10992;BME280;5549;47.028;15.514;2024-02-04T09:07:05;97108.63;;;11.40;53.68
10992;BME280;5549;47.028;15.514;2024-02-04T09:09:33;97098.34;;;11.48;53.78
10992;BME280;5549;47.028;15.514;2024-02-04T09:12:07;97104.69;;;11.46;54.30
10992;BME280;5549;47.028;15.514;2024-02-04T09:14:35;97085.78;;;11.52;54.45
10992;BME280;5549;47.028;15.514;2024-02-04T09:17:04;97086.03;;;11.49;53.21
10992;BME280;5549;47.028;15.514;2024-02-04T09:19:34;97075.50;;;11.49;52.14
10992;BME280;5549;47.028;15.514;2024-02-04T09:22:07;97089.25;;;11.30;52.07
10992;BME280;5549;47.028;15.514;2024-02-04T09:24:35;97084.84;;;11.42;52.43
10992;BME280;5549;47.028;15.514;2024-02-04T09:27:05;97086.59;;;11.64;51.25
10992;BME280;5549;47.028;15.514;2024-02-04T09:29:34;97081.66;;;11.93;52.02
10992;BME280;5549;47.028;15.514;2024-02-04T09:32:03;97089.00;;;12.10;51.55
10992;BME280;5549;47.028;15.514;2024-02-04T09:34:30;97081.09;;;12.21;50.63
10992;BME280;5549;47.028;15.514;2024-02-04T09:37:02;97081.59;;;12.04;50.24
10992;BME280;5549;47.028;15.514;2024-02-04T09:39:30;97077.81;;;11.97;51.01
10992;BME280;5549;47.028;15.514;2024-02-04T09:42:00;97076.84;;;11.98;52.52
10992;BME280;5549;47.028;15.514;2024-02-04T09:44:28;97078.84;;;12.05;52.35
10992;BME280;5549;47.028;15.514;2024-02-04T09:47:01;97071.28;;;12.23;53.22
10992;BME280;5549;47.028;15.514;2024-02-04T09:49:31;97071.47;;;12.73;52.28
10992;BME280;5549;47.028;15.514;2024-02-04T09:52:07;97062.84;;;12.92;50.92
10992;BME280;5549;47.028;15.514;2024-02-04T09:54:44;97066.66;;;13.08;50.95
10992;BME280;5549;47.028;15.514;2024-02-04T09:57:13;97063.75;;;13.32;50.26
10992;BME280;5549;47.028;15.514;2024-02-04T09:59:41;97070.84;;;13.41;50.07
10992;BME280;5549;47.028;15.514;2024-02-04T10:02:12;97059.25;;;13.73;51.20
10992;BME280;5549;47.028;15.514;2024-02-04T10:04:40;97061.97;;;13.92;48.76
10992;BME280;5549;47.028;15.514;2024-02-04T10:07:09;97062.53;;;14.15;48.41
10992;BME280;5549;47.028;15.514;2024-02-04T10:09:37;97060.44;;;14.38;48.53
10992;BME280;5549;47.028;15.514;2024-02-04T10:12:06;97071.72;;;14.59;48.11
10992;BME280;5549;47.028;15.514;2024-02-04T10:14:34;97060.09;;;14.89;47.99
10992;BME280;5549;47.028;15.514;2024-02-04T10:17:04;97071.19;;;15.02;46.65
10992;BME280;5549;47.028;15.514;2024-02-04T10:19:32;97053.31;;;15.24;46.78
10992;BME280;5549;47.028;15.514;2024-02-04T10:22:00;97061.09;;;15.25;45.53
10992;BME280;5549;47.028;15.514;2024-02-04T10:24:30;97053.94;;;15.35;45.04
10992;BME280;5549;47.028;15.514;2024-02-04T10:26:58;97054.59;;;15.47;45.49
10992;BME280;5549;47.028;15.514;2024-02-04T10:29:26;97044.34;;;15.71;46.47
10992;BME280;5549;47.028;15.514;2024-02-04T10:31:54;97044.53;;;16.06;46.21
10992;BME280;5549;47.028;15.514;2024-02-04T10:34:23;97028.69;;;16.31;45.44
10992;BME280;5549;47.028;15.514;2024-02-04T10:36:51;97029.56;;;16.58;43.43
10992;BME280;5549;47.028;15.514;2024-02-04T10:39:18;97008.13;;;16.69;42.90
10992;BME280;5549;47.028;15.514;2024-02-04T10:41:50;97000.75;;;16.63;42.63
10992;BME280;5549;47.028;15.514;2024-02-04T10:44:24;97003.84;;;16.76;42.94
10992;BME280;5549;47.028;15.514;2024-02-04T10:46:56;97000.78;;;16.89;41.36
10992;BME280;5549;47.028;15.514;2024-02-04T10:49:28;96991.34;;;17.28;40.95
10992;BME280;5549;47.028;15.514;2024-02-04T10:51:56;96986.88;;;16.95;41.80
10992;BME280;5549;47.028;15.514;2024-02-04T10:54:28;96992.84;;;17.31;42.02
10992;BME280;5549;47.028;15.514;2024-02-04T10:57:04;96995.09;;;17.44;40.14
10992;BME280;5549;47.028;15.514;2024-02-04T10:59:35;96981.28;;;17.90;40.24
10992;BME280;5549;47.028;15.514;2024-02-04T11:02:05;96978.13;;;17.87;37.64
10992;BME280;5549;47.028;15.514;2024-02-04T11:04:34;96975.81;;;18.24;39.57
10992;BME280;5549;47.028;15.514;2024-02-04T11:07:02;96968.47;;;18.67;38.30
10992;BME280;5549;47.028;15.514;2024-02-04T11:09:30;96975.69;;;19.14;38.92
10992;BME280;5549;47.028;15.514;2024-02-04T11:12:06;96969.41;;;19.46;36.43
10992;BME280;5549;47.028;15.514;2024-02-04T11:14:38;96973.72;;;19.55;36.51
10992;BME280;5549;47.028;15.514;2024-02-04T11:20:35;96961.25;;;20.47;37.44
10992;BME280;5549;47.028;15.514;2024-02-04T11:23:32;96956.16;;;20.90;36.51
10992;BME280;5549;47.028;15.514;2024-02-04T11:26:04;96955.66;;;20.71;34.40
10992;BME280;5549;47.028;15.514;2024-02-04T11:28:34;96957.72;;;20.99;35.31
10992;BME280;5549;47.028;15.514;2024-02-04T11:31:03;96949.78;;;21.50;35.55
10992;BME280;5549;47.028;15.514;2024-02-04T11:33:33;96935.69;;;21.77;34.03
10992;BME280;5549;47.028;15.514;2024-02-04T11:36:05;96932.41;;;21.39;33.23
10992;BME280;5549;47.028;15.514;2024-02-04T11:38:36;96935.81;;;21.33;33.21
10992;BME280;5549;47.028;15.514;2024-02-04T11:41:04;96940.31;;;21.32;32.87
10992;BME280;5549;47.028;15.514;2024-02-04T11:43:37;96943.31;;;20.70;32.70
10992;BME280;5549;47.028;15.514;2024-02-04T11:46:05;96933.75;;;20.76;33.70
10992;BME280;5549;47.028;15.514;2024-02-04T11:48:34;96924.47;;;20.72;33.41
10992;BME280;5549;47.028;15.514;2024-02-04T11:51:05;96916.28;;;20.36;34.38
10992;BME280;5549;47.028;15.514;2024-02-04T11:53:36;96919.50;;;19.94;34.38
10992;BME280;5549;47.028;15.514;2024-02-04T11:56:05;96924.50;;;20.11;34.18
10992;BME280;5549;47.028;15.514;2024-02-04T11:58:33;96928.00;;;20.12;34.12
10992;BME280;5549;47.028;15.514;2024-02-04T12:01:02;96914.63;;;19.97;35.08
10992;BME280;5549;47.028;15.514;2024-02-04T12:03:31;96915.72;;;19.88;34.98
10992;BME280;5549;47.028;15.514;2024-02-04T12:05:59;96908.53;;;19.89;35.05
10992;BME280;5549;47.028;15.514;2024-02-04T12:08:30;96902.97;;;19.98;34.67
10992;BME280;5549;47.028;15.514;2024-02-04T12:11:00;96905.28;;;20.01;34.22
10992;BME280;5549;47.028;15.514;2024-02-04T12:13:29;96900.47;;;19.97;33.85
10992;BME280;5549;47.028;15.514;2024-02-04T12:15:56;96899.59;;;20.04;33.77
10992;BME280;5549;47.028;15.514;2024-02-04T12:18:27;96895.63;;;20.00;34.08
10992;BME280;5549;47.028;15.514;2024-02-04T12:20:55;96892.66;;;19.95;34.03
10992;BME280;5549;47.028;15.514;2024-02-04T12:23:23;96878.47;;;20.17;33.44
10992;BME280;5549;47.028;15.514;2024-02-04T12:25:52;96876.22;;;20.06;34.04
10992;BME280;5549;47.028;15.514;2024-02-04T12:28:22;96880.41;;;19.86;33.31
10992;BME280;5549;47.028;15.514;2024-02-04T12:30:54;96877.19;;;19.91;33.42
10992;BME280;5549;47.028;15.514;2024-02-04T12:33:24;96867.25;;;19.84;33.35
10992;BME280;5549;47.028;15.514;2024-02-04T12:35:55;96861.06;;;19.38;33.61
10992;BME280;5549;47.028;15.514;2024-02-04T12:38:25;96862.66;;;19.56;33.34
10992;BME280;5549;47.028;15.514;2024-02-04T12:41:01;96868.28;;;19.61;32.57
10992;BME280;5549;47.028;15.514;2024-02-04T12:43:28;96871.19;;;19.43;32.87
10992;BME280;5549;47.028;15.514;2024-02-04T12:45:56;96862.56;;;19.10;32.94
10992;BME280;5549;47.028;15.514;2024-02-04T12:48:27;96873.88;;;19.04;32.97
10992;BME280;5549;47.028;15.514;2024-02-04T12:50:58;96871.16;;;19.20;32.76
10992;BME280;5549;47.028;15.514;2024-02-04T12:53:28;96856.44;;;19.32;32.56
10992;BME280;5549;47.028;15.514;2024-02-04T12:55:59;96854.69;;;19.47;32.42
10992;BME280;5549;47.028;15.514;2024-02-04T12:58:26;96848.78;;;19.83;32.88
10992;BME280;5549;47.028;15.514;2024-02-04T13:01:00;96841.91;;;19.89;32.71
10992;BME280;5549;47.028;15.514;2024-02-04T13:03:29;96847.78;;;19.84;31.92
10992;BME280;5549;47.028;15.514;2024-02-04T13:06:00;96845.78;;;20.01;32.26
10992;BME280;5549;47.028;15.514;2024-02-04T13:08:29;96840.34;;;19.94;31.63
10992;BME280;5549;47.028;15.514;2024-02-04T13:10:57;96833.00;;;19.59;31.88
10992;BME280;5549;47.028;15.514;2024-02-04T13:13:27;96843.22;;;19.47;32.22
10992;BME280;5549;47.028;15.514;2024-02-04T13:15:57;96841.34;;;19.56;32.16
10992;BME280;5549;47.028;15.514;2024-02-04T13:18:27;96836.69;;;19.49;31.56
10992;BME280;5549;47.028;15.514;2024-02-04T13:20:55;96838.47;;;19.34;32.57
10992;BME280;5549;47.028;15.514;2024-02-04T13:23:23;96830.81;;;19.31;32.24